Lodi, Ohio
Current Conditions -  °F | °C
As of 2:36 PM on Friday 31 Oct 2014 (Local Time) from KBJJ Reporting Station
Overcast Overcast  
Wind Chill: 45°   Ceiling: 3700
Heat Index: 48°   Visibility: 10mi
Dew Point: 36°   Wind: 6mph
Humidity: 63%   Direction: 240°WSW
Pressure: 29.85"   Gusts: NA
Location:  41.03°N, 82.01°W
Report Text: KBJJ 311836Z AUTO 24005KT 10SM SCT028 BKN037 OVC046 09/02 A2985 RMK AO2 T00890022 TSNO
Loading
Personal Weather Stations






























Interactive Weather Map
Tropical Storm Tracking
New forecast layout! Learn more

10-Day Weather Forecast

Advertisements
Track Severe Weather on mobile